createdAt,value
2017-07-06T00:01:05.582Z,15.90
2017-07-06T00:03:35.246Z,15.90
2017-07-06T00:06:04.936Z,15.90
2017-07-06T00:08:34.635Z,15.80
2017-07-06T00:11:04.327Z,15.70
2017-07-06T00:13:33.969Z,15.60
2017-07-06T00:16:03.658Z,15.60
2017-07-06T00:18:33.327Z,15.60
2017-07-06T00:21:03.784Z,15.40
2017-07-06T00:23:33.456Z,15.40
2017-07-06T00:26:03.930Z,15.20
2017-07-06T00:28:33.586Z,15.20
2017-07-06T00:31:04.066Z,15.10
2017-07-06T00:33:33.716Z,15.10
2017-07-06T00:36:03.416Z,15.10
2017-07-06T00:38:33.093Z,15.10
2017-07-06T00:41:02.753Z,15.10
2017-07-06T00:43:32.439Z,15.10
2017-07-06T00:46:02.125Z,15.10
2017-07-06T00:48:31.852Z,15.00
2017-07-06T00:51:01.525Z,15.00
2017-07-06T00:53:31.202Z,15.00
2017-07-06T00:56:01.651Z,15.00
2017-07-06T00:58:32.086Z,15.00
2017-07-06T01:01:01.753Z,15.00
2017-07-06T01:03:31.239Z,15.10
2017-07-06T01:06:00.927Z,15.20
2017-07-06T01:08:30.627Z,15.20
2017-07-06T01:11:00.324Z,15.20
2017-07-06T01:13:29.958Z,15.20
2017-07-06T01:15:59.663Z,15.20
2017-07-06T01:18:29.537Z,15.20
2017-07-06T01:20:59.236Z,15.20
2017-07-06T01:23:28.915Z,15.10
2017-07-06T01:25:59.382Z,15.00
2017-07-06T01:28:29.141Z,14.90
2017-07-06T01:30:58.137Z,14.90
2017-07-06T01:33:27.590Z,14.90
2017-07-06T01:35:57.104Z,14.90
2017-07-06T01:38:26.768Z,14.90
2017-07-06T01:40:56.455Z,14.80
2017-07-06T01:43:26.886Z,14.70
2017-07-06T01:45:56.999Z,14.70
2017-07-06T01:48:26.322Z,14.70
2017-07-06T01:50:55.486Z,14.70
2017-07-06T01:53:24.800Z,14.60
2017-07-06T01:55:54.561Z,14.60
2017-07-06T01:58:23.689Z,14.60
2017-07-06T02:00:53.181Z,14.60
2017-07-06T02:03:22.854Z,14.60
2017-07-06T02:05:52.565Z,14.60
2017-07-06T02:08:23.652Z,14.60
2017-07-06T02:10:53.326Z,14.60
2017-07-06T02:13:22.986Z,14.60
2017-07-06T02:15:53.390Z,14.60
2017-07-06T02:18:23.065Z,14.50
2017-07-06T02:20:52.747Z,14.60
2017-07-06T02:23:23.207Z,14.60
2017-07-06T02:25:52.885Z,14.60
2017-07-06T02:28:23.339Z,14.70
2017-07-06T02:30:53.023Z,14.70
2017-07-06T02:33:23.475Z,14.70
2017-07-06T02:35:53.135Z,14.70
2017-07-06T02:38:22.832Z,14.70
2017-07-06T02:40:52.531Z,14.70
2017-07-06T02:43:22.238Z,14.70
2017-07-06T02:45:51.911Z,14.80
2017-07-06T02:48:21.591Z,14.70
2017-07-06T02:50:51.247Z,14.80
2017-07-06T02:53:20.927Z,14.80
2017-07-06T02:55:51.341Z,14.90
2017-07-06T02:58:21.804Z,14.90
2017-07-06T03:00:51.454Z,14.90
2017-07-06T03:03:21.132Z,15.00
2017-07-06T03:05:50.837Z,15.10
2017-07-06T03:08:20.532Z,15.10
2017-07-06T03:10:50.213Z,15.00
2017-07-06T03:13:19.875Z,15.00
2017-07-06T03:15:50.329Z,15.10
2017-07-06T03:18:19.997Z,15.00
2017-07-06T03:20:49.665Z,15.10
2017-07-06T03:23:20.100Z,15.00
2017-07-06T03:25:49.855Z,15.00
2017-07-06T03:28:19.328Z,15.00
2017-07-06T03:30:49.010Z,15.10
2017-07-06T03:33:19.447Z,15.20
2017-07-06T03:35:49.880Z,15.20
2017-07-06T03:38:19.574Z,15.20
2017-07-06T03:40:49.259Z,15.40
2017-07-06T03:43:18.922Z,15.60
2017-07-06T03:45:48.606Z,15.60
2017-07-06T03:48:19.076Z,15.70
2017-07-06T03:50:48.766Z,15.70
2017-07-06T03:53:18.452Z,16.00
2017-07-06T03:55:48.889Z,16.00
2017-07-06T03:58:19.362Z,16.20
2017-07-06T04:00:49.039Z,16.20
2017-07-06T04:03:18.808Z,16.30
2017-07-06T04:05:48.128Z,16.40
2017-07-06T04:08:18.407Z,16.20
2017-07-06T04:10:48.081Z,16.20
2017-07-06T04:13:17.790Z,16.30
2017-07-06T04:15:47.468Z,16.40
2017-07-06T04:18:17.162Z,16.50
2017-07-06T04:20:46.839Z,16.40
2017-07-06T04:23:16.524Z,16.40
2017-07-06T04:25:46.973Z,16.60
2017-07-06T04:28:16.678Z,16.60
2017-07-06T04:30:46.363Z,16.60
2017-07-06T04:33:16.083Z,16.60
2017-07-06T04:35:45.771Z,16.70
2017-07-06T04:38:16.144Z,16.90
2017-07-06T04:40:45.839Z,16.90
2017-07-06T04:43:15.567Z,16.90
2017-07-06T04:45:45.282Z,17.00
2017-07-06T04:48:14.954Z,17.00
2017-07-06T04:50:44.667Z,17.00
2017-07-06T04:53:14.156Z,17.00
2017-07-06T04:55:43.839Z,16.90
2017-07-06T04:58:13.510Z,16.90
2017-07-06T05:00:44.097Z,16.90
2017-07-06T05:03:13.789Z,16.90
2017-07-06T05:05:43.484Z,16.90
2017-07-06T05:08:13.147Z,17.10
2017-07-06T05:10:43.001Z,17.30
2017-07-06T05:13:13.435Z,17.40
2017-07-06T05:15:42.445Z,17.40
2017-07-06T05:18:12.124Z,17.50
2017-07-06T05:20:42.598Z,17.70
2017-07-06T05:23:12.114Z,17.70
2017-07-06T05:25:41.809Z,17.70
2017-07-06T05:28:11.202Z,17.80
2017-07-06T05:30:40.595Z,17.90
2017-07-06T05:33:10.018Z,18.00
2017-07-06T05:35:39.424Z,17.90
2017-07-06T05:38:08.837Z,18.00
2017-07-06T05:40:38.824Z,18.10
2017-07-06T05:43:08.228Z,18.10
2017-07-06T05:45:37.273Z,18.20
2017-07-06T05:48:06.680Z,18.20
2017-07-06T05:50:36.105Z,18.40
2017-07-06T05:53:05.512Z,18.60
2017-07-06T05:55:34.934Z,18.70
2017-07-06T05:58:04.358Z,18.90
2017-07-06T06:00:33.824Z,18.80
2017-07-06T06:03:03.249Z,18.80
2017-07-06T06:05:33.425Z,18.90
2017-07-06T06:08:02.838Z,18.80
2017-07-06T06:10:31.565Z,18.80
2017-07-06T06:13:00.963Z,18.90
2017-07-06T06:15:30.397Z,18.80
2017-07-06T06:17:59.809Z,18.90
2017-07-06T06:20:29.980Z,18.90
2017-07-06T06:22:59.415Z,18.90
2017-07-06T06:25:28.818Z,18.90
2017-07-06T06:27:58.990Z,19.00
2017-07-06T06:30:28.394Z,18.90
2017-07-06T06:32:57.791Z,19.00
2017-07-06T06:35:27.340Z,19.00
2017-07-06T06:37:56.744Z,18.90
2017-07-06T06:40:26.180Z,18.90
2017-07-06T06:42:56.326Z,19.00
2017-07-06T06:45:25.554Z,19.00
2017-07-06T06:47:55.059Z,19.40
2017-07-06T06:50:24.462Z,19.80
2017-07-06T06:52:53.853Z,20.50
2017-07-06T06:55:22.418Z,21.90
2017-07-06T06:57:51.835Z,23.20
2017-07-06T07:00:21.292Z,24.30
2017-07-06T07:02:50.934Z,25.00
2017-07-06T07:05:20.353Z,25.60
2017-07-06T07:07:49.758Z,25.80
2017-07-06T07:10:19.206Z,25.80
2017-07-06T07:12:49.401Z,24.90
2017-07-06T07:15:18.829Z,24.90
2017-07-06T07:17:49.004Z,24.20
2017-07-06T07:20:18.327Z,24.20
2017-07-06T07:22:48.497Z,23.70
2017-07-06T07:25:17.892Z,23.70
2017-07-06T07:27:47.336Z,23.40
2017-07-06T07:30:17.496Z,23.50
2017-07-06T07:32:46.895Z,23.50
2017-07-06T07:35:16.298Z,25.00
2017-07-06T07:37:45.720Z,26.20
2017-07-06T07:40:15.127Z,26.80
2017-07-06T07:42:44.526Z,27.80
2017-07-06T07:45:13.936Z,28.20
2017-07-06T07:47:43.344Z,28.00
2017-07-06T07:50:12.776Z,27.90
2017-07-06T07:52:42.944Z,27.70
2017-07-06T07:55:12.359Z,27.60
2017-07-06T07:57:41.780Z,27.80
2017-07-06T08:00:11.034Z,28.20
2017-07-06T08:02:40.230Z,27.70
2017-07-06T08:05:09.647Z,27.70
2017-07-06T08:07:39.034Z,28.30
2017-07-06T08:10:08.455Z,28.80
2017-07-06T08:12:37.844Z,28.40
2017-07-06T08:15:07.270Z,28.10
2017-07-06T08:17:36.644Z,27.80
2017-07-06T08:20:06.066Z,28.20
2017-07-06T08:22:35.471Z,29.30
2017-07-06T08:25:04.898Z,29.50
2017-07-06T08:27:34.308Z,29.30
2017-07-06T08:30:03.752Z,28.40
2017-07-06T08:32:33.948Z,26.20
2017-07-06T08:35:03.350Z,26.10
2017-07-06T08:37:32.741Z,25.90
2017-07-06T08:40:02.144Z,25.90
2017-07-06T08:42:31.561Z,26.50
2017-07-06T08:45:00.958Z,27.30
2017-07-06T08:47:30.386Z,27.60
2017-07-06T08:50:00.550Z,28.10
2017-07-06T08:52:29.986Z,28.10
2017-07-06T08:54:59.376Z,28.10
2017-07-06T08:57:28.778Z,27.30
2017-07-06T08:59:58.173Z,27.00
2017-07-06T09:02:27.602Z,27.90
2017-07-06T09:04:57.000Z,28.90
2017-07-06T09:07:26.515Z,29.80
2017-07-06T09:09:55.928Z,30.90
2017-07-06T09:12:25.326Z,30.90
2017-07-06T09:14:54.713Z,30.30
2017-07-06T09:17:24.115Z,30.20
2017-07-06T09:19:53.557Z,29.80
2017-07-06T09:22:23.717Z,28.90
2017-07-06T09:24:53.140Z,28.80
2017-07-06T09:27:22.561Z,28.40
2017-07-06T09:29:51.270Z,27.30
2017-07-06T09:32:21.458Z,26.50
2017-07-06T09:34:50.854Z,26.40
2017-07-06T09:37:20.246Z,26.00
2017-07-06T09:39:49.701Z,25.60
2017-07-06T09:42:19.876Z,26.10
2017-07-06T09:44:49.285Z,26.10
2017-07-06T09:47:18.689Z,27.00
2017-07-06T09:49:48.106Z,28.30
2017-07-06T09:52:17.485Z,28.80
2017-07-06T09:54:46.903Z,29.40
2017-07-06T09:57:16.317Z,29.20
2017-07-06T09:59:45.517Z,28.70
2017-07-06T10:02:14.916Z,28.40
2017-07-06T10:04:44.324Z,29.00
2017-07-06T10:07:13.746Z,29.00
2017-07-06T10:09:43.735Z,30.50
2017-07-06T10:12:13.158Z,30.50
2017-07-06T10:14:42.592Z,30.50
2017-07-06T10:17:12.002Z,29.30
2017-07-06T10:19:41.398Z,27.70
2017-07-06T10:22:10.815Z,27.00
2017-07-06T10:24:40.231Z,26.50
2017-07-06T10:27:09.635Z,26.20
2017-07-06T10:29:39.057Z,25.60
2017-07-06T10:32:08.474Z,25.90
2017-07-06T10:34:37.868Z,26.20
2017-07-06T10:37:07.264Z,25.80
2017-07-06T10:39:36.685Z,25.80
2017-07-06T10:42:06.143Z,26.10
2017-07-06T10:44:35.559Z,27.00
2017-07-06T10:47:04.940Z,28.40
2017-07-06T10:49:34.366Z,30.20
2017-07-06T10:52:03.750Z,31.60
2017-07-06T10:54:33.181Z,32.50
2017-07-06T10:57:02.580Z,33.20
2017-07-06T10:59:31.977Z,33.20
2017-07-06T11:02:01.365Z,32.70
2017-07-06T11:04:30.809Z,32.30
2017-07-06T11:07:00.192Z,31.40
2017-07-06T11:09:29.613Z,32.00
2017-07-06T11:11:59.030Z,32.20
2017-07-06T11:14:28.430Z,32.90
2017-07-06T11:16:57.824Z,34.00
2017-07-06T11:19:27.257Z,34.20
2017-07-06T11:21:57.067Z,33.60
2017-07-06T11:24:27.237Z,33.20
2017-07-06T11:26:56.638Z,33.10
2017-07-06T11:29:26.025Z,33.90
2017-07-06T11:31:55.441Z,33.70
2017-07-06T11:34:24.835Z,34.30
2017-07-06T11:36:54.249Z,35.20
2017-07-06T11:39:23.633Z,34.30
2017-07-06T11:41:53.043Z,32.70
2017-07-06T11:44:22.455Z,32.70
2017-07-06T11:46:51.877Z,32.40
2017-07-06T11:49:21.266Z,31.10
2017-07-06T11:51:50.326Z,31.10
2017-07-06T11:54:19.733Z,31.80
2017-07-06T11:56:49.220Z,33.50
2017-07-06T11:59:19.375Z,33.50
2017-07-06T12:01:48.789Z,33.40
2017-07-06T12:04:18.598Z,33.80
2017-07-06T12:06:48.587Z,33.70
2017-07-06T12:09:17.972Z,33.60
2017-07-06T12:11:47.363Z,34.40
2017-07-06T12:14:16.578Z,34.50
2017-07-06T12:16:45.962Z,35.30
2017-07-06T12:19:15.370Z,35.20
2017-07-06T12:21:44.761Z,35.50
2017-07-06T12:24:14.181Z,34.80
2017-07-06T12:26:43.586Z,34.60
2017-07-06T12:29:12.997Z,35.60
2017-07-06T12:31:42.407Z,36.50
2017-07-06T12:34:12.017Z,36.30
2017-07-06T12:36:41.403Z,34.80
2017-07-06T12:39:10.827Z,33.80
2017-07-06T12:41:39.874Z,34.10
2017-07-06T12:44:09.289Z,34.70
2017-07-06T12:46:38.686Z,34.50
2017-07-06T12:49:08.148Z,34.00
2017-07-06T12:51:37.537Z,34.80
2017-07-06T12:54:06.959Z,35.20
2017-07-06T12:56:36.339Z,35.20
2017-07-06T12:59:05.769Z,35.00
2017-07-06T13:01:35.214Z,34.90
2017-07-06T13:04:04.624Z,34.90
2017-07-06T13:06:34.193Z,33.80
2017-07-06T13:09:03.038Z,32.40
2017-07-06T13:11:32.251Z,31.30
2017-07-06T13:14:01.637Z,30.60
2017-07-06T13:16:31.055Z,29.50
2017-07-06T13:19:00.496Z,29.40
2017-07-06T13:21:30.698Z,32.20
2017-07-06T13:24:00.094Z,32.10
2017-07-06T13:26:29.317Z,33.00
2017-07-06T13:31:28.055Z,33.60
2017-07-06T13:33:57.457Z,33.90
2017-07-06T13:36:26.527Z,34.60
2017-07-06T13:38:56.004Z,33.80
2017-07-06T13:41:25.411Z,33.10
2017-07-06T13:43:54.825Z,33.00
2017-07-06T13:46:24.983Z,30.90
2017-07-06T13:48:54.408Z,30.80
2017-07-06T13:51:23.815Z,30.30
2017-07-06T13:53:53.065Z,31.00
2017-07-06T13:56:23.260Z,31.40
2017-07-06T13:58:52.474Z,31.40
2017-07-06T14:01:22.649Z,32.10
2017-07-06T14:03:52.067Z,32.10
2017-07-06T14:06:21.121Z,32.30
2017-07-06T14:08:50.537Z,31.40
2017-07-06T14:11:19.939Z,30.30
2017-07-06T14:13:49.369Z,30.30
2017-07-06T14:16:18.760Z,29.90
2017-07-06T14:18:48.164Z,30.10
2017-07-06T14:21:17.551Z,30.10
2017-07-06T14:23:46.939Z,30.80
2017-07-06T14:26:16.369Z,31.50
2017-07-06T14:28:45.759Z,32.00
2017-07-06T14:31:15.179Z,32.60
2017-07-06T14:33:44.587Z,31.40
2017-07-06T14:36:14.015Z,30.60
2017-07-06T14:38:43.429Z,29.90
2017-07-06T14:41:12.829Z,29.70
2017-07-06T14:43:42.226Z,29.30
2017-07-06T14:46:11.634Z,29.10
2017-07-06T14:48:41.033Z,28.80
2017-07-06T14:51:10.439Z,28.70
2017-07-06T14:53:39.846Z,29.10
2017-07-06T14:56:09.248Z,29.10
2017-07-06T14:58:38.644Z,28.80
2017-07-06T15:01:08.051Z,28.40
2017-07-06T15:03:37.439Z,28.20
2017-07-06T15:06:06.851Z,28.30
2017-07-06T15:08:36.087Z,28.30
2017-07-06T15:11:05.494Z,28.10
2017-07-06T15:13:34.943Z,27.90
2017-07-06T15:16:04.590Z,27.40
2017-07-06T15:18:35.189Z,26.70
2017-07-06T15:21:04.571Z,26.70
2017-07-06T15:23:33.983Z,26.60
2017-07-06T15:26:03.387Z,26.60
2017-07-06T15:28:32.800Z,26.70
2017-07-06T15:31:02.199Z,26.70
2017-07-06T15:33:31.616Z,26.80
2017-07-06T15:36:01.014Z,26.80
2017-07-06T15:38:30.432Z,26.60
2017-07-06T15:40:59.819Z,26.70
2017-07-06T15:43:29.244Z,26.50
2017-07-06T15:45:58.642Z,26.40
2017-07-06T15:48:28.062Z,26.30
2017-07-06T15:50:58.229Z,26.40
2017-07-06T15:53:27.304Z,26.30
2017-07-06T15:55:56.719Z,26.30
2017-07-06T15:58:26.110Z,26.30
2017-07-06T16:00:55.531Z,26.20
2017-07-06T16:03:24.952Z,26.00
2017-07-06T16:05:55.325Z,25.90
2017-07-06T16:08:24.736Z,25.80
2017-07-06T16:10:54.149Z,25.70
2017-07-06T16:13:23.545Z,25.70
2017-07-06T16:15:52.973Z,25.50
2017-07-06T16:18:22.372Z,25.60
2017-07-06T16:20:51.775Z,25.60
2017-07-06T16:23:21.180Z,25.70
2017-07-06T16:25:50.583Z,25.70
2017-07-06T16:28:19.983Z,25.70
2017-07-06T16:30:49.407Z,25.60
2017-07-06T16:33:19.573Z,25.70
2017-07-06T16:35:49.017Z,25.70
2017-07-06T16:38:18.415Z,25.70
2017-07-06T16:40:47.837Z,25.80
2017-07-06T16:43:17.681Z,25.70
2017-07-06T16:45:47.153Z,25.70
2017-07-06T16:48:17.369Z,25.50
2017-07-06T16:50:46.778Z,25.50
2017-07-06T16:53:16.960Z,25.40
2017-07-06T16:55:46.363Z,25.40
2017-07-06T16:58:15.778Z,25.40
2017-07-06T17:00:45.181Z,25.40
2017-07-06T17:03:14.586Z,25.40
2017-07-06T17:05:43.985Z,25.40
2017-07-06T17:08:13.418Z,25.40
2017-07-06T17:10:43.570Z,25.50
2017-07-06T17:13:12.993Z,25.50
2017-07-06T17:15:42.398Z,25.40
2017-07-06T17:18:11.819Z,25.40
2017-07-06T17:20:41.192Z,25.40
2017-07-06T17:23:10.628Z,25.40
2017-07-06T17:25:40.031Z,25.40
2017-07-06T17:28:09.431Z,25.30
2017-07-06T17:30:38.818Z,25.30
2017-07-06T17:33:08.010Z,25.20
2017-07-06T17:35:37.451Z,25.20
2017-07-06T17:38:06.845Z,25.20
2017-07-06T17:40:36.551Z,25.20
2017-07-06T17:43:05.968Z,25.10
2017-07-06T17:45:35.407Z,25.10
2017-07-06T17:48:04.883Z,25.00
2017-07-06T17:50:34.306Z,25.00
2017-07-06T17:53:04.458Z,24.90
2017-07-06T17:55:33.878Z,24.80
2017-07-06T17:58:03.263Z,24.80
2017-07-06T18:00:32.708Z,24.80
2017-07-06T18:03:02.124Z,24.70
2017-07-06T18:05:31.587Z,24.60
2017-07-06T18:08:00.989Z,24.40
2017-07-06T18:10:30.391Z,24.30
2017-07-06T18:12:59.793Z,24.20
2017-07-06T18:15:29.218Z,24.20
2017-07-06T18:17:58.642Z,24.20
2017-07-06T18:20:28.059Z,24.20
2017-07-06T18:22:57.540Z,24.20
2017-07-06T18:25:26.743Z,24.20
2017-07-06T18:27:56.137Z,24.20
2017-07-06T18:30:25.533Z,24.20
2017-07-06T18:32:54.949Z,24.20
2017-07-06T18:35:24.368Z,24.20
2017-07-06T18:37:53.724Z,24.10
2017-07-06T18:40:23.112Z,24.10
2017-07-06T18:42:52.514Z,24.00
2017-07-06T18:45:21.915Z,24.00
2017-07-06T18:47:51.313Z,24.00
2017-07-06T18:50:20.741Z,23.90
2017-07-06T18:52:50.143Z,23.80
2017-07-06T18:55:19.551Z,23.70
2017-07-06T18:57:48.976Z,23.60
2017-07-06T19:00:18.377Z,23.60
2017-07-06T19:02:47.604Z,23.60
2017-07-06T19:05:17.034Z,23.50
2017-07-06T19:07:47.308Z,23.30
2017-07-06T19:10:16.772Z,23.20
2017-07-06T19:12:46.934Z,23.10
2017-07-06T19:15:16.329Z,23.10
2017-07-06T19:17:45.732Z,23.10
2017-07-06T19:20:15.147Z,23.00
2017-07-06T19:22:44.520Z,23.00
2017-07-06T19:25:14.007Z,22.90
2017-07-06T19:27:43.628Z,22.80
2017-07-06T19:30:13.046Z,22.70
2017-07-06T19:32:42.446Z,22.70
2017-07-06T19:35:11.853Z,22.60
2017-07-06T19:37:41.243Z,22.50
2017-07-06T19:40:10.641Z,22.50
2017-07-06T19:42:40.054Z,22.40
2017-07-06T19:45:09.452Z,22.30
2017-07-06T19:47:38.883Z,22.20
2017-07-06T19:50:08.295Z,22.20
2017-07-06T19:52:37.716Z,22.10
2017-07-06T19:55:07.112Z,22.00
2017-07-06T19:57:36.637Z,21.90
2017-07-06T20:00:06.056Z,21.80
2017-07-06T20:02:35.459Z,21.80
2017-07-06T20:05:04.843Z,21.70
2017-07-06T20:07:34.259Z,21.70
2017-07-06T20:10:03.670Z,21.70
2017-07-06T20:12:33.062Z,21.60
2017-07-06T20:15:02.484Z,21.50
2017-07-06T20:17:31.891Z,21.50
2017-07-06T20:20:01.287Z,21.40
2017-07-06T20:22:30.707Z,21.30
2017-07-06T20:25:00.871Z,21.20
2017-07-06T20:27:29.948Z,21.20
2017-07-06T20:29:59.347Z,21.20
2017-07-06T20:32:28.734Z,21.20
2017-07-06T20:34:58.933Z,21.10
2017-07-06T20:37:28.348Z,21.10
2017-07-06T20:39:57.769Z,21.00
2017-07-06T20:42:27.204Z,20.90
2017-07-06T20:44:56.617Z,20.80
2017-07-06T20:47:26.015Z,20.80
2017-07-06T20:49:55.110Z,20.70
2017-07-06T20:52:24.516Z,20.70
2017-07-06T20:54:53.929Z,20.70
2017-07-06T20:57:24.119Z,20.60
2017-07-06T20:59:53.541Z,20.50
2017-07-06T21:02:22.940Z,20.50
2017-07-06T21:04:52.346Z,20.40
2017-07-06T21:07:21.748Z,20.40
2017-07-06T21:09:51.165Z,20.30
2017-07-06T21:12:20.552Z,20.30
2017-07-06T21:14:49.984Z,20.30
2017-07-06T21:17:20.166Z,20.20
2017-07-06T21:19:49.569Z,20.20
2017-07-06T21:22:18.989Z,20.20
2017-07-06T21:24:48.371Z,20.10
2017-07-06T21:27:17.802Z,20.10
2017-07-06T21:29:47.198Z,20.00
2017-07-06T21:32:16.627Z,20.00
2017-07-06T21:34:46.823Z,20.00
2017-07-06T21:37:16.227Z,20.00
2017-07-06T21:39:45.641Z,20.00
2017-07-06T21:42:15.041Z,19.90
2017-07-06T21:44:44.499Z,19.90
2017-07-06T21:47:13.949Z,19.80
2017-07-06T21:49:43.368Z,19.80
2017-07-06T21:52:13.555Z,19.80
2017-07-06T21:54:42.961Z,19.80
2017-07-06T21:57:12.481Z,19.80
2017-07-06T21:59:42.665Z,19.70
2017-07-06T22:02:12.066Z,19.70
2017-07-06T22:04:41.494Z,19.70
2017-07-06T22:07:10.886Z,19.70
2017-07-06T22:09:40.306Z,19.60
2017-07-06T22:12:09.715Z,19.60
2017-07-06T22:14:39.132Z,19.60
2017-07-06T22:17:09.424Z,19.50
2017-07-06T22:19:38.882Z,19.50
2017-07-06T22:22:08.278Z,19.50
2017-07-06T22:24:38.505Z,19.50
2017-07-06T22:27:08.661Z,19.50
2017-07-06T22:29:38.057Z,19.40
2017-07-06T22:32:07.474Z,19.40
2017-07-06T22:34:37.649Z,19.30
2017-07-06T22:37:07.039Z,19.30
2017-07-06T22:39:36.448Z,19.30
2017-07-06T22:42:05.855Z,19.20
2017-07-06T22:44:35.275Z,19.20
2017-07-06T22:47:04.487Z,19.10
2017-07-06T22:49:33.900Z,19.10
2017-07-06T22:52:03.399Z,19.10
2017-07-06T22:54:32.809Z,19.10
2017-07-06T22:57:02.020Z,19.00
2017-07-06T22:59:32.184Z,19.00
2017-07-06T23:02:01.602Z,19.00
2017-07-06T23:04:31.002Z,18.90
2017-07-06T23:07:00.410Z,18.80
2017-07-06T23:09:29.811Z,18.80
2017-07-06T23:11:59.267Z,18.80
2017-07-06T23:14:29.432Z,18.80
2017-07-06T23:16:59.120Z,18.80
2017-07-06T23:19:28.523Z,18.80
2017-07-06T23:21:57.946Z,18.70
2017-07-06T23:24:27.345Z,18.70
2017-07-06T23:26:56.802Z,18.70
2017-07-06T23:29:26.729Z,18.70
2017-07-06T23:31:56.147Z,18.60
2017-07-06T23:34:25.541Z,18.60
2017-07-06T23:36:55.236Z,18.60
2017-07-06T23:39:25.416Z,18.60
2017-07-06T23:41:55.093Z,18.50
2017-07-06T23:44:24.527Z,18.50
2017-07-06T23:46:53.929Z,18.50
2017-07-06T23:49:23.357Z,18.50
2017-07-06T23:51:52.757Z,18.40
2017-07-06T23:54:22.158Z,18.40
2017-07-06T23:56:51.550Z,18.40
2017-07-06T23:59:20.961Z,18.40
